Michel Dsr — FLTE — position and weather

sailwx.info

Track history (hours):
 
Tides and Currents Weather Stations Pressure Air Temp Water Temp Dewpoint Dewpoint Depression Visibility Wind Speed Wind Dir Waves Ship Positions

Michel Dsr

Last reported at 2015-May-26 09:10 UTC. Time now 2015-May-26 15:51 UTC.
Position N 47°18' W 002°07'.

Length 80 m; draft 6 m.

Type: Dredging. MMSI: 228344700.

Date/timePositionNaut miles runAvg speedWind from/ knotsBaromVisibWave heightAir tempDewpointWater temp
2015-May-26 09:10N 47°18' W 002°07'26 3.8
2015-May-26 02:15N 46°56' W 002°29'6 8.2
2015-May-26 01:33N 46°51' W 002°25'12 8.8
2015-May-26 00:14N 46°43' W 002°13'6 8.7
2015-May-25 23:31N 46°38' W 002°08'8 8.4
2015-May-25 22:34N 46°31' W 002°01'8 8.3
2015-May-25 21:33N 46°24' W 001°54'8 8.2
2015-May-25 20:33N 46°18' W 001°47'8 8.2
2015-May-25 19:33N 46°11' W 001°40'8 8.0
2015-May-25 18:34N 46°05' W 001°33'0 0.2
2015-May-25 17:33N 46°05' W 001°34'0 0.1
2015-May-25 16:33N 46°05' W 001°34'7 7.4
2015-May-25 15:33N 46°11' W 001°40'1110.7
2015-May-25 14:33N 46°19' W 001°49'1010.5
2015-May-25 13:34N 46°28' W 001°58'1110.6
2015-May-25 12:33N 46°37' W 002°07'1110.8
2015-May-25 11:33N 46°45' W 002°16'1210.9
2015-May-25 10:29N 46°54' W 002°28'2110.8
2015-May-25 08:32N 47°09' W 002°49'2110.5
2015-May-25 06:30N 47°26' W 003°09'1010.5
2015-May-25 05:33N 47°34' W 003°18'9 8.7
2015-May-25 04:33N 47°42' W 003°23'3 2.8
2015-May-25 03:33N 47°44' W 003°21'0 0.0
2015-May-25 02:33N 47°44' W 003°21'0 0.0
2015-May-25 01:33N 47°44' W 003°21'0 0.0
2015-May-25 00:33N 47°44' W 003°21'0 0.0
2015-May-24 23:33N 47°44' W 003°21'0 0.0
2015-May-24 22:33N 47°44' W 003°21'0 0.0
2015-May-24 21:33N 47°44' W 003°21'0 0.0
2015-May-24 20:33N 47°44' W 003°21'0 0.0
2015-May-24 19:33N 47°44' W 003°21'0 0.0
2015-May-24 18:33N 47°44' W 003°21'0 0.0
2015-May-24 17:33N 47°44' W 003°21'0 0.0
2015-May-24 16:33N 47°44' W 003°21'0 0.0
2015-May-24 15:33N 47°44' W 003°21'0 0.0
2015-May-24 14:33N 47°44' W 003°21'0 0.0
2015-May-24 13:33N 47°44' W 003°21'0 0.0
2015-May-24 12:33N 47°44' W 003°21'0 0.0
2015-May-24 11:33N 47°44' W 003°21'0 0.0
2015-May-24 10:33N 47°44' W 003°21'0 0.0
2015-May-24 09:33N 47°44' W 003°21'0 0.0
2015-May-24 08:33N 47°44' W 003°21'0 0.0
2015-May-24 07:33N 47°44' W 003°21'0 0.0
2015-May-24 06:33N 47°44' W 003°21'0 0.0
2015-May-24 05:33N 47°44' W 003°21'0 0.0
2015-May-24 04:33N 47°44' W 003°21'0 0.0
2015-May-24 03:33N 47°44' W 003°21'0 0.0
2015-May-24 02:33N 47°44' W 003°21'0 0.0
2015-May-24 01:33N 47°44' W 003°21'0 0.0
2015-May-24 00:33N 47°44' W 003°21'0 0.0
2015-May-23 23:33N 47°44' W 003°21'0 0.0
2015-May-23 22:33N 47°44' W 003°21'0 0.0
2015-May-23 21:33N 47°44' W 003°21'0 0.0
2015-May-23 20:33N 47°44' W 003°21'0 0.0
2015-May-23 19:33N 47°44' W 003°21'0 0.0
2015-May-23 18:33N 47°44' W 003°21'0 0.0
2015-May-23 17:33N 47°44' W 003°21'0 0.0
2015-May-23 16:33N 47°44' W 003°21'0 0.0
2015-May-23 15:33N 47°44' W 003°21'0 0.0
2015-May-23 14:33N 47°44' W 003°21'0 0.0
2015-May-23 13:33N 47°44' W 003°21'0 0.0
2015-May-23 12:34N 47°44' W 003°21'0 0.0
2015-May-23 11:33N 47°44' W 003°21'0 0.0
2015-May-23 10:34N 47°44' W 003°21'0 0.0
2015-May-23 09:33N 47°44' W 003°21'0 0.0
2015-May-23 08:34N 47°44' W 003°21'0 0.0
2015-May-23 07:34N 47°44' W 003°21'0 0.0
2015-May-23 06:34N 47°44' W 003°21'0 0.0
2015-May-23 05:34N 47°44' W 003°21'0 0.0
2015-May-23 04:33N 47°44' W 003°21'0 0.0
2015-May-23 03:33N 47°44' W 003°21'0 0.0
2015-May-23 02:33N 47°44' W 003°21'0 0.0
2015-May-23 01:33N 47°44' W 003°21'0 0.0
2015-May-23 00:34N 47°44' W 003°21'0 0.0
2015-May-22 23:33N 47°44' W 003°21'0 0.0
2015-May-22 22:33N 47°44' W 003°21'0 0.0
2015-May-22 21:33N 47°44' W 003°21'0 0.0
2015-May-22 20:33N 47°44' W 003°21'0 0.0
2015-May-22 19:33N 47°44' W 003°21'0 0.0
2015-May-22 18:33N 47°44' W 003°21'0 0.0
2015-May-22 17:33N 47°44' W 003°21'0 0.0
2015-May-22 16:33N 47°44' W 003°21'0 0.0
2015-May-22 15:33N 47°44' W 003°21'0 0.0
2015-May-22 14:33N 47°44' W 003°21'0 0.0
2015-May-22 13:33N 47°44' W 003°21'0 0.0
2015-May-22 12:33N 47°44' W 003°21'0 0.0
2015-May-22 11:33N 47°44' W 003°21'0 0.0
2015-May-22 10:33N 47°44' W 003°21'0 0.0
2015-May-22 09:33N 47°44' W 003°21'0 0.0
2015-May-22 08:33N 47°44' W 003°21'0 0.0
2015-May-22 07:33N 47°44' W 003°21'0 0.0
2015-May-22 06:33N 47°44' W 003°21'0 0.0
2015-May-22 05:33N 47°44' W 003°21'0 0.0
2015-May-22 04:33N 47°44' W 003°21'0 0.0
2015-May-22 03:33N 47°44' W 003°21'0 0.0
2015-May-22 02:33N 47°44' W 003°21'0 0.0
2015-May-22 01:33N 47°44' W 003°21'0 0.0
2015-May-22 00:33N 47°44' W 003°21'0 0.0
2015-May-21 23:33N 47°44' W 003°21'0 0.0
2015-May-21 22:33N 47°44' W 003°21'0 0.0
2015-May-21 21:33N 47°44' W 003°21'0 0.0
2015-May-21 20:33N 47°44' W 003°21'0 0.0
2015-May-21 19:33N 47°44' W 003°21'0 0.0
2015-May-21 18:33N 47°44' W 003°21'0 0.0
2015-May-21 17:33N 47°44' W 003°21'0 0.0
2015-May-21 16:33N 47°44' W 003°21'0 0.0
2015-May-21 15:33N 47°44' W 003°21'0 0.0
2015-May-21 14:33N 47°44' W 003°21'0 0.0
2015-May-21 13:33N 47°44' W 003°21'0 0.0
2015-May-21 12:33N 47°44' W 003°21'0 0.0
2015-May-21 11:33N 47°44' W 003°21'0 0.0
2015-May-21 10:33N 47°44' W 003°21'0 0.0
2015-May-21 09:33N 47°44' W 003°21'0 0.0
2015-May-21 08:33N 47°44' W 003°21'0 0.0
2015-May-21 07:33N 47°44' W 003°21'0 0.0
2015-May-21 06:33N 47°44' W 003°21'0 0.0
2015-May-21 05:33N 47°44' W 003°21'0 0.0
2015-May-21 04:33N 47°44' W 003°21'0 0.0
2015-May-21 03:33N 47°44' W 003°21'0 0.0
2015-May-21 02:33N 47°44' W 003°21'0 0.0
2015-May-21 01:33N 47°44' W 003°21'0 0.0
2015-May-21 00:33N 47°44' W 003°21'0 0.0
2015-May-20 23:33N 47°44' W 003°21'0 0.0
2015-May-20 22:33N 47°44' W 003°21'0 0.0
2015-May-20 21:33N 47°44' W 003°21'0 0.0
2015-May-20 20:33N 47°44' W 003°21'0 0.0
2015-May-20 19:33N 47°44' W 003°21'0 0.0
2015-May-20 18:33N 47°44' W 003°21'0 0.0
2015-May-20 17:33N 47°44' W 003°21'0 0.0
2015-May-20 16:33N 47°44' W 003°21'0 0.0
2015-May-20 15:33N 47°44' W 003°21'0 0.0
2015-May-20 14:34N 47°44' W 003°21'0 0.0
2015-May-20 13:33N 47°44' W 003°21'0 0.0
2015-May-20 12:34N 47°44' W 003°21'0 0.0
2015-May-20 11:34N 47°44' W 003°21'0 0.0
2015-May-20 10:33N 47°44' W 003°21'0 0.0
2015-May-20 09:33N 47°44' W 003°21'0 0.0
2015-May-20 08:33N 47°44' W 003°21'0 0.2
2015-May-20 07:33N 47°44' W 003°21'0 0.0
2015-May-20 06:33N 47°44' W 003°21'0 0.0
2015-May-20 05:34N 47°44' W 003°21'0 0.0
2015-May-20 04:33N 47°44' W 003°21'0 0.0
2015-May-20 03:33N 47°44' W 003°21'0 0.0
2015-May-20 02:33N 47°44' W 003°21'0 0.0
2015-May-20 01:33N 47°44' W 003°21'0 0.0
2015-May-20 00:33N 47°44' W 003°21'0 0.0
2015-May-19 23:33N 47°44' W 003°21'0 0.0
2015-May-19 22:33N 47°44' W 003°21'0 0.0
2015-May-19 21:33N 47°44' W 003°21'0 0.0
2015-May-19 20:33N 47°44' W 003°21'0 0.0
2015-May-19 19:33N 47°44' W 003°21'0 0.0
2015-May-19 18:33N 47°44' W 003°21'0 0.0
2015-May-19 17:33N 47°44' W 003°21'0 0.0
2015-May-19 16:33N 47°44' W 003°21'0 0.0
2015-May-19 15:33N 47°44' W 003°21'0 0.0
2015-May-19 14:33N 47°44' W 003°21'0 0.0
2015-May-19 13:33N 47°44' W 003°21'0 0.0
2015-May-19 12:33N 47°44' W 003°21'0 0.0
2015-May-19 11:33N 47°44' W 003°21'0 0.0
2015-May-19 10:33N 47°44' W 003°21'0 0.0
2015-May-19 09:33N 47°44' W 003°21'0 0.0
2015-May-19 08:33N 47°44' W 003°21'0 0.0
2015-May-19 07:33N 47°44' W 003°21'0 0.0
2015-May-19 06:33N 47°44' W 003°21'0 0.0
2015-May-19 05:32N 47°44' W 003°21'0 0.0
2015-May-19 04:32N 47°44' W 003°21'0 0.0
2015-May-19 03:33N 47°44' W 003°21'0 0.0
2015-May-19 02:33N 47°44' W 003°21'0 0.0
2015-May-19 01:33N 47°44' W 003°21'0 0.0
2015-May-19 00:33N 47°44' W 003°21'0 0.0
2015-May-18 23:33N 47°44' W 003°21'0 0.0
2015-May-18 22:33N 47°44' W 003°21'0 0.0
2015-May-18 21:33N 47°44' W 003°21'0 0.0
2015-May-18 20:33N 47°44' W 003°21'0 0.0
2015-May-18 19:33N 47°44' W 003°21'0 0.0
2015-May-18 18:33N 47°44' W 003°21'0 0.0
2015-May-18 17:33N 47°44' W 003°21'0 0.0
2015-May-18 16:33N 47°44' W 003°21'0 0.0
2015-May-18 15:33N 47°44' W 003°21'0 0.0
2015-May-18 14:33N 47°44' W 003°21'0 0.0
2015-May-18 13:33N 47°44' W 003°21'0 0.0
2015-May-18 12:33N 47°44' W 003°21'0 0.0
2015-May-18 11:33N 47°44' W 003°21'0 0.0
2015-May-18 10:33N 47°44' W 003°21'0 0.0
2015-May-18 09:33N 47°44' W 003°21'0 0.0
2015-May-18 08:33N 47°44' W 003°21'0 0.0
2015-May-18 07:33N 47°44' W 003°21'0 0.0
2015-May-18 06:33N 47°44' W 003°21'0 0.0
2015-May-18 05:33N 47°44' W 003°21'0 0.0
2015-May-18 04:33N 47°44' W 003°21'0 0.0
2015-May-18 03:33N 47°44' W 003°21'0 0.0
2015-May-18 02:33N 47°44' W 003°21'0 0.0
2015-May-18 01:33N 47°44' W 003°21'0 0.0
2015-May-18 00:33N 47°44' W 003°21'0 0.0
2015-May-17 23:33N 47°44' W 003°21'0 0.0
2015-May-17 22:33N 47°44' W 003°21'0 0.0
2015-May-17 21:33N 47°44' W 003°21'0 0.0
2015-May-17 20:33N 47°44' W 003°21'0 0.0
2015-May-17 19:33N 47°44' W 003°21'0 0.0
2015-May-17 18:33N 47°44' W 003°21'0 0.0
2015-May-17 17:33N 47°44' W 003°21'0 0.0
2015-May-17 16:33N 47°44' W 003°21'0 0.0
2015-May-17 15:33N 47°44' W 003°21'0 0.0
2015-May-17 14:33N 47°44' W 003°21'0 0.0
2015-May-17 13:33N 47°44' W 003°21'0 0.0
2015-May-17 12:33N 47°44' W 003°21'0 0.0
2015-May-17 11:33N 47°44' W 003°21'0 0.0
2015-May-17 10:33N 47°44' W 003°21'0 0.0
2015-May-17 09:33N 47°44' W 003°21'0 0.0
2015-May-17 08:33N 47°44' W 003°21'0 0.0
2015-May-17 07:33N 47°44' W 003°21'0 0.0
2015-May-17 06:33N 47°44' W 003°21'0 0.0
2015-May-17 05:33N 47°44' W 003°21'1 1.5
2015-May-17 04:33N 47°45' W 003°19'0 0.0
2015-May-17 03:33N 47°45' W 003°19'0 0.0
2015-May-17 02:33N 47°45' W 003°19'0 0.0
2015-May-17 01:33N 47°45' W 003°19'6 6.1
2015-May-17 00:33N 47°40' W 003°25'0 0.0
2015-May-16 23:33N 47°40' W 003°25'0 0.0
2015-May-16 22:33N 47°40' W 003°25'0 0.0
2015-May-16 21:33N 47°40' W 003°25'0 0.1
2015-May-16 20:33N 47°40' W 003°25'8 7.8
2015-May-16 19:33N 47°34' W 003°18'1110.6
2015-May-16 18:34N 47°25' W 003°09'1110.5
2015-May-16 17:33N 47°18' W 002°58'1110.5
2015-May-16 16:33N 47°13' W 002°45'  
Track history (hours):
 
Tides and Currents Weather Stations Pressure Air Temp Water Temp Dewpoint Dewpoint Depression Visibility Wind Speed Wind Dir Waves Ship Positions

Michel Dsr

Last reported at 2015-May-26 09:10 UTC. Time now 2015-May-26 15:51 UTC.
Position N 47°18' W 002°07'.

Length 80 m; draft 6 m.

Type: Dredging. MMSI: 228344700.

Date/timePositionNaut miles runAvg speedWind from/ knotsBaromVisibWave heightAir tempDewpointWater temp
2015-May-26 09:10N 47°18' W 002°07'26 3.8
2015-May-26 02:15N 46°56' W 002°29'6 8.2
2015-May-26 01:33N 46°51' W 002°25'12 8.8
2015-May-26 00:14N 46°43' W 002°13'6 8.7
2015-May-25 23:31N 46°38' W 002°08'8 8.4
2015-May-25 22:34N 46°31' W 002°01'8 8.3
2015-May-25 21:33N 46°24' W 001°54'8 8.2
2015-May-25 20:33N 46°18' W 001°47'8 8.2
2015-May-25 19:33N 46°11' W 001°40'8 8.0
2015-May-25 18:34N 46°05' W 001°33'0 0.2
2015-May-25 17:33N 46°05' W 001°34'0 0.1
2015-May-25 16:33N 46°05' W 001°34'7 7.4
2015-May-25 15:33N 46°11' W 001°40'1110.7
2015-May-25 14:33N 46°19' W 001°49'1010.5
2015-May-25 13:34N 46°28' W 001°58'1110.6
2015-May-25 12:33N 46°37' W 002°07'1110.8
2015-May-25 11:33N 46°45' W 002°16'1210.9
2015-May-25 10:29N 46°54' W 002°28'2110.8
2015-May-25 08:32N 47°09' W 002°49'2110.5
2015-May-25 06:30N 47°26' W 003°09'1010.5
2015-May-25 05:33N 47°34' W 003°18'9 8.7
2015-May-25 04:33N 47°42' W 003°23'3 2.8
2015-May-25 03:33N 47°44' W 003°21'0 0.0
2015-May-25 02:33N 47°44' W 003°21'0 0.0
2015-May-25 01:33N 47°44' W 003°21'0 0.0
2015-May-25 00:33N 47°44' W 003°21'0 0.0
2015-May-24 23:33N 47°44' W 003°21'0 0.0
2015-May-24 22:33N 47°44' W 003°21'0 0.0
2015-May-24 21:33N 47°44' W 003°21'0 0.0
2015-May-24 20:33N 47°44' W 003°21'0 0.0
2015-May-24 19:33N 47°44' W 003°21'0 0.0
2015-May-24 18:33N 47°44' W 003°21'0 0.0
2015-May-24 17:33N 47°44' W 003°21'0 0.0
2015-May-24 16:33N 47°44' W 003°21'0 0.0
2015-May-24 15:33N 47°44' W 003°21'0 0.0
2015-May-24 14:33N 47°44' W 003°21'0 0.0
2015-May-24 13:33N 47°44' W 003°21'0 0.0
2015-May-24 12:33N 47°44' W 003°21'0 0.0
2015-May-24 11:33N 47°44' W 003°21'0 0.0
2015-May-24 10:33N 47°44' W 003°21'0 0.0
2015-May-24 09:33N 47°44' W 003°21'0 0.0
2015-May-24 08:33N 47°44' W 003°21'0 0.0
2015-May-24 07:33N 47°44' W 003°21'0 0.0
2015-May-24 06:33N 47°44' W 003°21'0 0.0
2015-May-24 05:33N 47°44' W 003°21'0 0.0
2015-May-24 04:33N 47°44' W 003°21'0 0.0
2015-May-24 03:33N 47°44' W 003°21'0 0.0
2015-May-24 02:33N 47°44' W 003°21'0 0.0
2015-May-24 01:33N 47°44' W 003°21'0 0.0
2015-May-24 00:33N 47°44' W 003°21'0 0.0
2015-May-23 23:33N 47°44' W 003°21'0 0.0
2015-May-23 22:33N 47°44' W 003°21'0 0.0
2015-May-23 21:33N 47°44' W 003°21'0 0.0
2015-May-23 20:33N 47°44' W 003°21'0 0.0
2015-May-23 19:33N 47°44' W 003°21'0 0.0
2015-May-23 18:33N 47°44' W 003°21'0 0.0
2015-May-23 17:33N 47°44' W 003°21'0 0.0
2015-May-23 16:33N 47°44' W 003°21'0 0.0
2015-May-23 15:33N 47°44' W 003°21'0 0.0
2015-May-23 14:33N 47°44' W 003°21'0 0.0
2015-May-23 13:33N 47°44' W 003°21'0 0.0
2015-May-23 12:34N 47°44' W 003°21'0 0.0
2015-May-23 11:33N 47°44' W 003°21'0 0.0
2015-May-23 10:34N 47°44' W 003°21'0 0.0
2015-May-23 09:33N 47°44' W 003°21'0 0.0
2015-May-23 08:34N 47°44' W 003°21'0 0.0
2015-May-23 07:34N 47°44' W 003°21'0 0.0
2015-May-23 06:34N 47°44' W 003°21'0 0.0
2015-May-23 05:34N 47°44' W 003°21'0 0.0
2015-May-23 04:33N 47°44' W 003°21'0 0.0
2015-May-23 03:33N 47°44' W 003°21'0 0.0
2015-May-23 02:33N 47°44' W 003°21'0 0.0
2015-May-23 01:33N 47°44' W 003°21'0 0.0
2015-May-23 00:34N 47°44' W 003°21'0 0.0
2015-May-22 23:33N 47°44' W 003°21'0 0.0
2015-May-22 22:33N 47°44' W 003°21'0 0.0
2015-May-22 21:33N 47°44' W 003°21'0 0.0
2015-May-22 20:33N 47°44' W 003°21'0 0.0
2015-May-22 19:33N 47°44' W 003°21'0 0.0
2015-May-22 18:33N 47°44' W 003°21'0 0.0
2015-May-22 17:33N 47°44' W 003°21'0 0.0
2015-May-22 16:33N 47°44' W 003°21'0 0.0
2015-May-22 15:33N 47°44' W 003°21'0 0.0
2015-May-22 14:33N 47°44' W 003°21'0 0.0
2015-May-22 13:33N 47°44' W 003°21'0 0.0
2015-May-22 12:33N 47°44' W 003°21'0 0.0
2015-May-22 11:33N 47°44' W 003°21'0 0.0
2015-May-22 10:33N 47°44' W 003°21'0 0.0
2015-May-22 09:33N 47°44' W 003°21'0 0.0
2015-May-22 08:33N 47°44' W 003°21'0 0.0
2015-May-22 07:33N 47°44' W 003°21'0 0.0
2015-May-22 06:33N 47°44' W 003°21'0 0.0
2015-May-22 05:33N 47°44' W 003°21'0 0.0
2015-May-22 04:33N 47°44' W 003°21'0 0.0
2015-May-22 03:33N 47°44' W 003°21'0 0.0
2015-May-22 02:33N 47°44' W 003°21'0 0.0
2015-May-22 01:33N 47°44' W 003°21'0 0.0
2015-May-22 00:33N 47°44' W 003°21'0 0.0
2015-May-21 23:33N 47°44' W 003°21'0 0.0
2015-May-21 22:33N 47°44' W 003°21'0 0.0
2015-May-21 21:33N 47°44' W 003°21'0 0.0
2015-May-21 20:33N 47°44' W 003°21'0 0.0
2015-May-21 19:33N 47°44' W 003°21'0 0.0
2015-May-21 18:33N 47°44' W 003°21'0 0.0
2015-May-21 17:33N 47°44' W 003°21'0 0.0
2015-May-21 16:33N 47°44' W 003°21'0 0.0
2015-May-21 15:33N 47°44' W 003°21'0 0.0
2015-May-21 14:33N 47°44' W 003°21'0 0.0
2015-May-21 13:33N 47°44' W 003°21'0 0.0
2015-May-21 12:33N 47°44' W 003°21'0 0.0
2015-May-21 11:33N 47°44' W 003°21'0 0.0
2015-May-21 10:33N 47°44' W 003°21'0 0.0
2015-May-21 09:33N 47°44' W 003°21'0 0.0
2015-May-21 08:33N 47°44' W 003°21'0 0.0
2015-May-21 07:33N 47°44' W 003°21'0 0.0
2015-May-21 06:33N 47°44' W 003°21'0 0.0
2015-May-21 05:33N 47°44' W 003°21'0 0.0
2015-May-21 04:33N 47°44' W 003°21'0 0.0
2015-May-21 03:33N 47°44' W 003°21'0 0.0
2015-May-21 02:33N 47°44' W 003°21'0 0.0
2015-May-21 01:33N 47°44' W 003°21'0 0.0
2015-May-21 00:33N 47°44' W 003°21'0 0.0
2015-May-20 23:33N 47°44' W 003°21'0 0.0
2015-May-20 22:33N 47°44' W 003°21'0 0.0
2015-May-20 21:33N 47°44' W 003°21'0 0.0
2015-May-20 20:33N 47°44' W 003°21'0 0.0
2015-May-20 19:33N 47°44' W 003°21'0 0.0
2015-May-20 18:33N 47°44' W 003°21'0 0.0
2015-May-20 17:33N 47°44' W 003°21'0 0.0
2015-May-20 16:33N 47°44' W 003°21'0 0.0
2015-May-20 15:33N 47°44' W 003°21'0 0.0
2015-May-20 14:34N 47°44' W 003°21'0 0.0
2015-May-20 13:33N 47°44' W 003°21'0 0.0
2015-May-20 12:34N 47°44' W 003°21'0 0.0
2015-May-20 11:34N 47°44' W 003°21'0 0.0
2015-May-20 10:33N 47°44' W 003°21'0 0.0
2015-May-20 09:33N 47°44' W 003°21'0 0.0
2015-May-20 08:33N 47°44' W 003°21'0 0.2
2015-May-20 07:33N 47°44' W 003°21'0 0.0
2015-May-20 06:33N 47°44' W 003°21'0 0.0
2015-May-20 05:34N 47°44' W 003°21'0 0.0
2015-May-20 04:33N 47°44' W 003°21'0 0.0
2015-May-20 03:33N 47°44' W 003°21'0 0.0
2015-May-20 02:33N 47°44' W 003°21'0 0.0
2015-May-20 01:33N 47°44' W 003°21'0 0.0
2015-May-20 00:33N 47°44' W 003°21'0 0.0
2015-May-19 23:33N 47°44' W 003°21'0 0.0
2015-May-19 22:33N 47°44' W 003°21'0 0.0
2015-May-19 21:33N 47°44' W 003°21'0 0.0
2015-May-19 20:33N 47°44' W 003°21'0 0.0
2015-May-19 19:33N 47°44' W 003°21'0 0.0
2015-May-19 18:33N 47°44' W 003°21'0 0.0
2015-May-19 17:33N 47°44' W 003°21'0 0.0
2015-May-19 16:33N 47°44' W 003°21'0 0.0
2015-May-19 15:33N 47°44' W 003°21'0 0.0
2015-May-19 14:33N 47°44' W 003°21'0 0.0
2015-May-19 13:33N 47°44' W 003°21'0 0.0
2015-May-19 12:33N 47°44' W 003°21'0 0.0
2015-May-19 11:33N 47°44' W 003°21'0 0.0
2015-May-19 10:33N 47°44' W 003°21'0 0.0
2015-May-19 09:33N 47°44' W 003°21'0 0.0
2015-May-19 08:33N 47°44' W 003°21'0 0.0
2015-May-19 07:33N 47°44' W 003°21'0 0.0
2015-May-19 06:33N 47°44' W 003°21'0 0.0
2015-May-19 05:32N 47°44' W 003°21'0 0.0
2015-May-19 04:32N 47°44' W 003°21'0 0.0
2015-May-19 03:33N 47°44' W 003°21'0 0.0
2015-May-19 02:33N 47°44' W 003°21'0 0.0
2015-May-19 01:33N 47°44' W 003°21'0 0.0
2015-May-19 00:33N 47°44' W 003°21'0 0.0
2015-May-18 23:33N 47°44' W 003°21'0 0.0
2015-May-18 22:33N 47°44' W 003°21'0 0.0
2015-May-18 21:33N 47°44' W 003°21'0 0.0
2015-May-18 20:33N 47°44' W 003°21'0 0.0
2015-May-18 19:33N 47°44' W 003°21'0 0.0
2015-May-18 18:33N 47°44' W 003°21'0 0.0
2015-May-18 17:33N 47°44' W 003°21'0 0.0
2015-May-18 16:33N 47°44' W 003°21'0 0.0
2015-May-18 15:33N 47°44' W 003°21'0 0.0
2015-May-18 14:33N 47°44' W 003°21'0 0.0
2015-May-18 13:33N 47°44' W 003°21'0 0.0
2015-May-18 12:33N 47°44' W 003°21'0 0.0
2015-May-18 11:33N 47°44' W 003°21'0 0.0
2015-May-18 10:33N 47°44' W 003°21'0 0.0
2015-May-18 09:33N 47°44' W 003°21'0 0.0
2015-May-18 08:33N 47°44' W 003°21'0 0.0
2015-May-18 07:33N 47°44' W 003°21'0 0.0
2015-May-18 06:33N 47°44' W 003°21'0 0.0
2015-May-18 05:33N 47°44' W 003°21'0 0.0
2015-May-18 04:33N 47°44' W 003°21'0 0.0
2015-May-18 03:33N 47°44' W 003°21'0 0.0
2015-May-18 02:33N 47°44' W 003°21'0 0.0
2015-May-18 01:33N 47°44' W 003°21'0 0.0
2015-May-18 00:33N 47°44' W 003°21'0 0.0
2015-May-17 23:33N 47°44' W 003°21'0 0.0
2015-May-17 22:33N 47°44' W 003°21'0 0.0
2015-May-17 21:33N 47°44' W 003°21'0 0.0
2015-May-17 20:33N 47°44' W 003°21'0 0.0
2015-May-17 19:33N 47°44' W 003°21'0 0.0
2015-May-17 18:33N 47°44' W 003°21'0 0.0
2015-May-17 17:33N 47°44' W 003°21'0 0.0
2015-May-17 16:33N 47°44' W 003°21'0 0.0
2015-May-17 15:33N 47°44' W 003°21'0 0.0
2015-May-17 14:33N 47°44' W 003°21'0 0.0
2015-May-17 13:33N 47°44' W 003°21'0 0.0
2015-May-17 12:33N 47°44' W 003°21'0 0.0
2015-May-17 11:33N 47°44' W 003°21'0 0.0
2015-May-17 10:33N 47°44' W 003°21'0 0.0
2015-May-17 09:33N 47°44' W 003°21'0 0.0
2015-May-17 08:33N 47°44' W 003°21'0 0.0
2015-May-17 07:33N 47°44' W 003°21'0 0.0
2015-May-17 06:33N 47°44' W 003°21'0 0.0
2015-May-17 05:33N 47°44' W 003°21'1 1.5
2015-May-17 04:33N 47°45' W 003°19'0 0.0
2015-May-17 03:33N 47°45' W 003°19'0 0.0
2015-May-17 02:33N 47°45' W 003°19'0 0.0
2015-May-17 01:33N 47°45' W 003°19'6 6.1
2015-May-17 00:33N 47°40' W 003°25'0 0.0
2015-May-16 23:33N 47°40' W 003°25'0 0.0
2015-May-16 22:33N 47°40' W 003°25'0 0.0
2015-May-16 21:33N 47°40' W 003°25'0 0.1
2015-May-16 20:33N 47°40' W 003°25'8 7.8
2015-May-16 19:33N 47°34' W 003°18'1110.6
2015-May-16 18:34N 47°25' W 003°09'1110.5
2015-May-16 17:33N 47°18' W 002°58'1110.5
2015-May-16 16:33N 47°13' W 002°45'  

Dump ship's entire track history